sensor_id;sensor_type;location;lat;lon;timestamp;temperature;humidity
6788;DHT22;3431;47.966;10.268;2023-04-25T00:00:17;6.60;99.90
6788;DHT22;3431;47.966;10.268;2023-04-25T00:00:39;6.60;99.90
6788;DHT22;3431;47.966;10.268;2023-04-25T00:01:02;6.60;99.90
6788;DHT22;3431;47.966;10.268;2023-04-25T00:01:24;6.50;99.90
6788;DHT22;3431;47.966;10.268;2023-04-25T00:01:46;6.60;99.90
6788;DHT22;3431;47.966;10.268;2023-04-25T00:02:09;6.50;99.90
6788;DHT22;3431;47.966;10.268;2023-04-25T00:02:30;6.60;99.90
6788;DHT22;3431;47.966;10.268;2023-04-25T00:02:53;6.50;99.90
6788;DHT22;3431;47.966;10.268;2023-04-25T00:03:16;6.60;99.90
6788;DHT22;3431;47.966;10.268;2023-04-25T00:03:39;6.60;99.90
6788;DHT22;3431;47.966;10.268;2023-04-25T00:04:01;6.60;99.90
6788;DHT22;3431;47.966;10.268;2023-04-25T00:04:23;6.60;99.90
6788;DHT22;3431;47.966;10.268;2023-04-25T00:04:45;6.60;99.90
6788;DHT22;3431;47.966;10.268;2023-04-25T00:05:10;6.60;99.90
6788;DHT22;3431;47.966;10.268;2023-04-25T00:05:32;6.60;99.90
6788;DHT22;3431;47.966;10.268;2023-04-25T00:05:53;6.50;99.90
6788;DHT22;3431;47.966;10.268;2023-04-25T00:06:17;6.50;99.90
6788;DHT22;3431;47.966;10.268;2023-04-25T00:06:40;6.60;99.90
6788;DHT22;3431;47.966;10.268;2023-04-25T00:07:03;6.60;99.90
6788;DHT22;3431;47.966;10.268;2023-04-25T00:07:25;6.50;99.90
6788;DHT22;3431;47.966;10.268;2023-04-25T00:07:46;6.60;99.90
6788;DHT22;3431;47.966;10.268;2023-04-25T00:08:08;6.50;99.90
6788;DHT22;3431;47.966;10.268;2023-04-25T00:08:31;6.60;99.90
6788;DHT22;3431;47.966;10.268;2023-04-25T00:08:52;6.60;99.90
6788;DHT22;3431;47.966;10.268;2023-04-25T00:09:14;6.50;99.90
6788;DHT22;3431;47.966;10.268;2023-04-25T00:09:36;6.60;99.90
6788;DHT22;3431;47.966;10.268;2023-04-25T00:09:59;6.50;99.90
6788;DHT22;3431;47.966;10.268;2023-04-25T00:10:21;6.50;99.90
6788;DHT22;3431;47.966;10.268;2023-04-25T00:10:43;6.50;99.90
6788;DHT22;3431;47.966;10.268;2023-04-25T00:11:04;6.60;99.90
6788;DHT22;3431;47.966;10.268;2023-04-25T00:11:26;6.50;99.90
6788;DHT22;3431;47.966;10.268;2023-04-25T00:11:48;6.50;99.90
6788;DHT22;3431;47.966;10.268;2023-04-25T00:12:10;6.60;99.90
6788;DHT22;3431;47.966;10.268;2023-04-25T00:12:32;6.60;99.90
6788;DHT22;3431;47.966;10.268;2023-04-25T00:12:54;6.50;99.90
6788;DHT22;3431;47.966;10.268;2023-04-25T00:13:17;6.60;99.90
6788;DHT22;3431;47.966;10.268;2023-04-25T00:13:38;6.60;99.90
6788;DHT22;3431;47.966;10.268;2023-04-25T00:14:03;6.60;99.90
6788;DHT22;3431;47.966;10.268;2023-04-25T00:14:24;6.60;99.90
6788;DHT22;3431;47.966;10.268;2023-04-25T00:14:48;6.60;99.90
6788;DHT22;3431;47.966;10.268;2023-04-25T00:15:11;6.60;99.90
6788;DHT22;3431;47.966;10.268;2023-04-25T00:15:33;6.60;99.90
6788;DHT22;3431;47.966;10.268;2023-04-25T00:15:55;6.60;99.90
6788;DHT22;3431;47.966;10.268;2023-04-25T00:16:17;6.60;99.90
6788;DHT22;3431;47.966;10.268;2023-04-25T00:16:40;6.70;99.90
6788;DHT22;3431;47.966;10.268;2023-04-25T00:17:02;6.70;99.90
6788;DHT22;3431;47.966;10.268;2023-04-25T00:17:24;6.60;99.90
6788;DHT22;3431;47.966;10.268;2023-04-25T00:17:45;6.70;99.90
6788;DHT22;3431;47.966;10.268;2023-04-25T00:18:07;6.70;99.90
6788;DHT22;3431;47.966;10.268;2023-04-25T00:18:30;6.70;99.90
6788;DHT22;3431;47.966;10.268;2023-04-25T00:18:51;6.70;99.90
6788;DHT22;3431;47.966;10.268;2023-04-25T00:19:15;6.60;99.90
6788;DHT22;3431;47.966;10.268;2023-04-25T00:19:37;6.70;99.90
6788;DHT22;3431;47.966;10.268;2023-04-25T00:19:59;6.70;99.90
6788;DHT22;3431;47.966;10.268;2023-04-25T00:20:21;6.70;99.90
6788;DHT22;3431;47.966;10.268;2023-04-25T00:20:44;6.70;99.90
6788;DHT22;3431;47.966;10.268;2023-04-25T00:21:07;6.70;99.90
6788;DHT22;3431;47.966;10.268;2023-04-25T00:21:29;6.70;99.90
6788;DHT22;3431;47.966;10.268;2023-04-25T00:21:52;6.70;99.90
6788;DHT22;3431;47.966;10.268;2023-04-25T00:22:16;6.60;99.90
6788;DHT22;3431;47.966;10.268;2023-04-25T00:22:37;6.60;99.90
6788;DHT22;3431;47.966;10.268;2023-04-25T00:22:59;6.60;99.90
6788;DHT22;3431;47.966;10.268;2023-04-25T00:23:21;6.60;99.90
6788;DHT22;3431;47.966;10.268;2023-04-25T00:23:43;6.60;99.90
6788;DHT22;3431;47.966;10.268;2023-04-25T00:24:07;6.60;99.90
6788;DHT22;3431;47.966;10.268;2023-04-25T00:24:28;6.60;99.90
6788;DHT22;3431;47.966;10.268;2023-04-25T00:24:51;6.50;99.90
6788;DHT22;3431;47.966;10.268;2023-04-25T00:25:14;6.60;99.90
6788;DHT22;3431;47.966;10.268;2023-04-25T00:25:36;6.60;99.90
6788;DHT22;3431;47.966;10.268;2023-04-25T00:25:57;6.60;99.90
6788;DHT22;3431;47.966;10.268;2023-04-25T00:26:19;6.60;99.90
6788;DHT22;3431;47.966;10.268;2023-04-25T00:26:42;6.60;99.90
6788;DHT22;3431;47.966;10.268;2023-04-25T00:27:03;6.60;99.90
6788;DHT22;3431;47.966;10.268;2023-04-25T00:27:25;6.60;99.90
6788;DHT22;3431;47.966;10.268;2023-04-25T00:27:46;6.60;99.90
6788;DHT22;3431;47.966;10.268;2023-04-25T00:28:09;6.60;99.90
6788;DHT22;3431;47.966;10.268;2023-04-25T00:28:30;6.60;99.90
6788;DHT22;3431;47.966;10.268;2023-04-25T00:28:52;6.60;99.90
6788;DHT22;3431;47.966;10.268;2023-04-25T00:29:14;6.60;99.90
6788;DHT22;3431;47.966;10.268;2023-04-25T00:29:36;6.60;99.90
6788;DHT22;3431;47.966;10.268;2023-04-25T00:29:58;6.60;99.90
6788;DHT22;3431;47.966;10.268;2023-04-25T00:30:20;6.60;99.90
6788;DHT22;3431;47.966;10.268;2023-04-25T00:30:42;6.60;99.90
6788;DHT22;3431;47.966;10.268;2023-04-25T00:31:04;6.60;99.90
6788;DHT22;3431;47.966;10.268;2023-04-25T00:31:27;6.60;99.90
6788;DHT22;3431;47.966;10.268;2023-04-25T00:31:50;6.60;99.90
6788;DHT22;3431;47.966;10.268;2023-04-25T00:32:11;6.60;99.90
6788;DHT22;3431;47.966;10.268;2023-04-25T00:32:33;6.60;99.90
6788;DHT22;3431;47.966;10.268;2023-04-25T00:32:55;6.60;99.90
6788;DHT22;3431;47.966;10.268;2023-04-25T00:33:17;6.60;99.90
6788;DHT22;3431;47.966;10.268;2023-04-25T00:33:38;6.60;99.90
6788;DHT22;3431;47.966;10.268;2023-04-25T00:34:00;6.60;99.90
6788;DHT22;3431;47.966;10.268;2023-04-25T00:34:22;6.60;99.90
6788;DHT22;3431;47.966;10.268;2023-04-25T00:34:44;6.60;99.90
6788;DHT22;3431;47.966;10.268;2023-04-25T00:35:06;6.60;99.90
6788;DHT22;3431;47.966;10.268;2023-04-25T00:35:28;6.60;99.90
6788;DHT22;3431;47.966;10.268;2023-04-25T00:35:49;6.60;99.90
6788;DHT22;3431;47.966;10.268;2023-04-25T00:36:12;6.60;99.90
6788;DHT22;3431;47.966;10.268;2023-04-25T00:36:34;6.50;99.90
6788;DHT22;3431;47.966;10.268;2023-04-25T00:36:56;6.50;99.90
6788;DHT22;3431;47.966;10.268;2023-04-25T00:37:19;6.50;99.90
6788;DHT22;3431;47.966;10.268;2023-04-25T00:37:42;6.50;99.90
6788;DHT22;3431;47.966;10.268;2023-04-25T00:38:03;6.50;99.90
6788;DHT22;3431;47.966;10.268;2023-04-25T00:38:25;6.50;99.90
6788;DHT22;3431;47.966;10.268;2023-04-25T00:38:47;6.50;99.90
6788;DHT22;3431;47.966;10.268;2023-04-25T00:39:09;6.50;99.90
6788;DHT22;3431;47.966;10.268;2023-04-25T00:39:31;6.50;99.90
6788;DHT22;3431;47.966;10.268;2023-04-25T00:39:53;6.50;99.90
6788;DHT22;3431;47.966;10.268;2023-04-25T00:40:17;6.50;99.90
6788;DHT22;3431;47.966;10.268;2023-04-25T00:40:38;6.60;99.90
6788;DHT22;3431;47.966;10.268;2023-04-25T00:41:00;6.50;99.90
6788;DHT22;3431;47.966;10.268;2023-04-25T00:41:22;6.50;99.90
6788;DHT22;3431;47.966;10.268;2023-04-25T00:41:45;6.50;99.90
6788;DHT22;3431;47.966;10.268;2023-04-25T00:42:08;6.50;99.90
6788;DHT22;3431;47.966;10.268;2023-04-25T00:42:30;6.50;99.90
6788;DHT22;3431;47.966;10.268;2023-04-25T00:42:53;6.50;99.90
6788;DHT22;3431;47.966;10.268;2023-04-25T00:43:14;6.50;99.90
6788;DHT22;3431;47.966;10.268;2023-04-25T00:43:37;6.50;99.90
6788;DHT22;3431;47.966;10.268;2023-04-25T00:44:01;6.50;99.90
6788;DHT22;3431;47.966;10.268;2023-04-25T00:44:24;6.50;99.90
6788;DHT22;3431;47.966;10.268;2023-04-25T00:44:46;6.50;99.90
6788;DHT22;3431;47.966;10.268;2023-04-25T00:45:13;6.50;99.90
6788;DHT22;3431;47.966;10.268;2023-04-25T00:45:38;6.60;99.90
6788;DHT22;3431;47.966;10.268;2023-04-25T00:46:00;6.60;99.90
6788;DHT22;3431;47.966;10.268;2023-04-25T00:46:22;6.50;99.90
6788;DHT22;3431;47.966;10.268;2023-04-25T00:46:44;6.50;99.90
6788;DHT22;3431;47.966;10.268;2023-04-25T00:47:07;6.60;99.90
6788;DHT22;3431;47.966;10.268;2023-04-25T00:47:30;6.60;99.90
6788;DHT22;3431;47.966;10.268;2023-04-25T00:47:51;6.60;99.90
6788;DHT22;3431;47.966;10.268;2023-04-25T00:48:14;6.60;99.90
6788;DHT22;3431;47.966;10.268;2023-04-25T00:48:35;6.60;99.90
6788;DHT22;3431;47.966;10.268;2023-04-25T00:48:58;6.50;99.90
6788;DHT22;3431;47.966;10.268;2023-04-25T00:49:19;6.60;99.90
6788;DHT22;3431;47.966;10.268;2023-04-25T00:49:41;6.60;99.90
6788;DHT22;3431;47.966;10.268;2023-04-25T00:50:03;6.60;99.90
6788;DHT22;3431;47.966;10.268;2023-04-25T00:50:25;6.80;99.90
6788;DHT22;3431;47.966;10.268;2023-04-25T00:50:51;6.60;99.90
6788;DHT22;3431;47.966;10.268;2023-04-25T00:51:16;6.70;99.90
6788;DHT22;3431;47.966;10.268;2023-04-25T00:51:38;6.60;99.90
6788;DHT22;3431;47.966;10.268;2023-04-25T00:52:00;6.60;99.90
6788;DHT22;3431;47.966;10.268;2023-04-25T00:52:23;6.60;99.90
6788;DHT22;3431;47.966;10.268;2023-04-25T00:52:45;6.60;99.90
6788;DHT22;3431;47.966;10.268;2023-04-25T00:53:07;6.70;99.90
6788;DHT22;3431;47.966;10.268;2023-04-25T00:53:31;6.70;99.90
6788;DHT22;3431;47.966;10.268;2023-04-25T00:53:54;6.70;99.90
6788;DHT22;3431;47.966;10.268;2023-04-25T00:54:16;6.70;99.90
6788;DHT22;3431;47.966;10.268;2023-04-25T00:54:38;6.70;99.90
6788;DHT22;3431;47.966;10.268;2023-04-25T00:55:00;6.70;99.90
6788;DHT22;3431;47.966;10.268;2023-04-25T00:55:23;6.70;99.90
6788;DHT22;3431;47.966;10.268;2023-04-25T00:55:45;6.70;99.90
6788;DHT22;3431;47.966;10.268;2023-04-25T00:56:08;6.70;99.90
6788;DHT22;3431;47.966;10.268;2023-04-25T00:56:30;6.70;99.90
6788;DHT22;3431;47.966;10.268;2023-04-25T00:56:52;6.70;99.90
6788;DHT22;3431;47.966;10.268;2023-04-25T00:57:15;6.70;99.90
6788;DHT22;3431;47.966;10.268;2023-04-25T00:57:37;6.70;99.90
6788;DHT22;3431;47.966;10.268;2023-04-25T00:57:58;6.70;99.90
6788;DHT22;3431;47.966;10.268;2023-04-25T00:58:21;6.70;99.90
6788;DHT22;3431;47.966;10.268;2023-04-25T00:58:44;6.70;99.90
6788;DHT22;3431;47.966;10.268;2023-04-25T00:59:05;6.70;99.90
6788;DHT22;3431;47.966;10.268;2023-04-25T00:59:28;6.70;99.90
6788;DHT22;3431;47.966;10.268;2023-04-25T00:59:51;6.70;99.90
6788;DHT22;3431;47.966;10.268;2023-04-25T01:00:15;6.70;99.90
6788;DHT22;3431;47.966;10.268;2023-04-25T01:00:39;6.70;99.90
6788;DHT22;3431;47.966;10.268;2023-04-25T01:01:02;6.70;99.90
6788;DHT22;3431;47.966;10.268;2023-04-25T01:01:24;6.70;99.90
6788;DHT22;3431;47.966;10.268;2023-04-25T01:01:46;6.70;99.90
6788;DHT22;3431;47.966;10.268;2023-04-25T01:02:08;6.70;99.90
6788;DHT22;3431;47.966;10.268;2023-04-25T01:02:30;6.70;99.90
6788;DHT22;3431;47.966;10.268;2023-04-25T01:02:53;6.70;99.90
6788;DHT22;3431;47.966;10.268;2023-04-25T01:03:16;6.70;99.90
6788;DHT22;3431;47.966;10.268;2023-04-25T01:03:39;6.70;99.90
6788;DHT22;3431;47.966;10.268;2023-04-25T01:04:02;6.70;99.90
6788;DHT22;3431;47.966;10.268;2023-04-25T01:04:23;6.70;99.90
6788;DHT22;3431;47.966;10.268;2023-04-25T01:04:48;6.70;99.90
6788;DHT22;3431;47.966;10.268;2023-04-25T01:05:09;6.60;99.90
6788;DHT22;3431;47.966;10.268;2023-04-25T01:05:31;6.60;99.90
6788;DHT22;3431;47.966;10.268;2023-04-25T01:05:53;6.60;99.90
6788;DHT22;3431;47.966;10.268;2023-04-25T01:06:16;6.60;99.90
6788;DHT22;3431;47.966;10.268;2023-04-25T01:06:39;6.60;99.90
6788;DHT22;3431;47.966;10.268;2023-04-25T01:07:01;6.60;99.90
6788;DHT22;3431;47.966;10.268;2023-04-25T01:07:25;6.60;99.90
6788;DHT22;3431;47.966;10.268;2023-04-25T01:07:47;6.60;99.90
6788;DHT22;3431;47.966;10.268;2023-04-25T01:08:10;6.60;99.90
6788;DHT22;3431;47.966;10.268;2023-04-25T01:08:31;6.60;99.90
6788;DHT22;3431;47.966;10.268;2023-04-25T01:08:53;6.60;99.90
6788;DHT22;3431;47.966;10.268;2023-04-25T01:09:16;6.60;99.90
6788;DHT22;3431;47.966;10.268;2023-04-25T01:09:38;6.60;99.90
6788;DHT22;3431;47.966;10.268;2023-04-25T01:10:00;6.60;99.90
6788;DHT22;3431;47.966;10.268;2023-04-25T01:10:22;6.60;99.90
6788;DHT22;3431;47.966;10.268;2023-04-25T01:10:44;6.60;99.90
6788;DHT22;3431;47.966;10.268;2023-04-25T01:11:06;6.60;99.90
6788;DHT22;3431;47.966;10.268;2023-04-25T01:11:28;6.60;99.90
6788;DHT22;3431;47.966;10.268;2023-04-25T01:11:49;6.60;99.90
6788;DHT22;3431;47.966;10.268;2023-04-25T01:12:12;6.60;99.90
6788;DHT22;3431;47.966;10.268;2023-04-25T01:12:34;6.60;99.90
6788;DHT22;3431;47.966;10.268;2023-04-25T01:12:55;6.60;99.90
6788;DHT22;3431;47.966;10.268;2023-04-25T01:13:17;5.80;99.90
6788;DHT22;3431;47.966;10.268;2023-04-25T01:13:39;6.60;99.90
6788;DHT22;3431;47.966;10.268;2023-04-25T01:14:01;6.60;99.90
6788;DHT22;3431;47.966;10.268;2023-04-25T01:14:23;6.50;99.90
6788;DHT22;3431;47.966;10.268;2023-04-25T01:14:44;6.50;99.90
6788;DHT22;3431;47.966;10.268;2023-04-25T01:15:07;6.50;99.90
6788;DHT22;3431;47.966;10.268;2023-04-25T01:15:30;6.50;99.90
6788;DHT22;3431;47.966;10.268;2023-04-25T01:15:52;6.50;99.90
6788;DHT22;3431;47.966;10.268;2023-04-25T01:16:15;6.50;99.90
6788;DHT22;3431;47.966;10.268;2023-04-25T01:16:37;6.50;99.90
6788;DHT22;3431;47.966;10.268;2023-04-25T01:16:59;6.50;99.90
6788;DHT22;3431;47.966;10.268;2023-04-25T01:17:22;6.50;99.90
6788;DHT22;3431;47.966;10.268;2023-04-25T01:17:44;6.50;99.90
6788;DHT22;3431;47.966;10.268;2023-04-25T01:18:06;6.50;99.90
6788;DHT22;3431;47.966;10.268;2023-04-25T01:18:28;6.50;99.90
6788;DHT22;3431;47.966;10.268;2023-04-25T01:18:51;6.50;99.90
6788;DHT22;3431;47.966;10.268;2023-04-25T01:19:16;6.50;99.90
6788;DHT22;3431;47.966;10.268;2023-04-25T01:19:41;6.50;99.90
6788;DHT22;3431;47.966;10.268;2023-04-25T01:20:04;6.50;99.90
6788;DHT22;3431;47.966;10.268;2023-04-25T01:20:29;6.50;99.90
6788;DHT22;3431;47.966;10.268;2023-04-25T01:20:52;6.50;99.90
6788;DHT22;3431;47.966;10.268;2023-04-25T01:21:16;6.50;99.90
6788;DHT22;3431;47.966;10.268;2023-04-25T01:21:39;6.50;99.90
6788;DHT22;3431;47.966;10.268;2023-04-25T01:22:02;6.50;99.90
6788;DHT22;3431;47.966;10.268;2023-04-25T01:22:25;6.50;99.90
6788;DHT22;3431;47.966;10.268;2023-04-25T01:22:47;6.50;99.90
6788;DHT22;3431;47.966;10.268;2023-04-25T01:23:09;6.50;99.90
6788;DHT22;3431;47.966;10.268;2023-04-25T01:23:32;6.50;99.90
6788;DHT22;3431;47.966;10.268;2023-04-25T01:23:54;6.50;99.90
6788;DHT22;3431;47.966;10.268;2023-04-25T01:24:16;6.50;99.90
6788;DHT22;3431;47.966;10.268;2023-04-25T01:24:38;6.50;99.90
6788;DHT22;3431;47.966;10.268;2023-04-25T01:25:00;6.50;99.90
6788;DHT22;3431;47.966;10.268;2023-04-25T01:25:23;6.50;99.90
6788;DHT22;3431;47.966;10.268;2023-04-25T01:25:45;6.50;99.90
6788;DHT22;3431;47.966;10.268;2023-04-25T01:26:09;6.50;99.90
6788;DHT22;3431;47.966;10.268;2023-04-25T01:26:31;6.50;99.90
6788;DHT22;3431;47.966;10.268;2023-04-25T01:26:54;6.50;99.90
6788;DHT22;3431;47.966;10.268;2023-04-25T01:27:19;6.50;99.90
6788;DHT22;3431;47.966;10.268;2023-04-25T01:27:42;6.50;99.90
6788;DHT22;3431;47.966;10.268;2023-04-25T01:28:04;6.50;99.90
6788;DHT22;3431;47.966;10.268;2023-04-25T01:28:27;6.50;99.90
6788;DHT22;3431;47.966;10.268;2023-04-25T01:28:49;6.50;99.90
6788;DHT22;3431;47.966;10.268;2023-04-25T01:29:11;6.40;99.90
6788;DHT22;3431;47.966;10.268;2023-04-25T01:29:34;6.50;99.90
6788;DHT22;3431;47.966;10.268;2023-04-25T01:29:58;6.40;99.90
6788;DHT22;3431;47.966;10.268;2023-04-25T01:30:20;6.40;99.90
6788;DHT22;3431;47.966;10.268;2023-04-25T01:30:42;6.50;99.90
6788;DHT22;3431;47.966;10.268;2023-04-25T01:31:04;6.50;99.90
6788;DHT22;3431;47.966;10.268;2023-04-25T01:31:27;6.40;99.90
6788;DHT22;3431;47.966;10.268;2023-04-25T01:31:50;6.40;99.90
6788;DHT22;3431;47.966;10.268;2023-04-25T01:32:13;6.30;99.90
6788;DHT22;3431;47.966;10.268;2023-04-25T01:32:36;6.30;99.90
6788;DHT22;3431;47.966;10.268;2023-04-25T01:33:00;6.30;99.90
6788;DHT22;3431;47.966;10.268;2023-04-25T01:33:23;6.30;99.90
6788;DHT22;3431;47.966;10.268;2023-04-25T01:33:45;6.20;99.90
6788;DHT22;3431;47.966;10.268;2023-04-25T01:34:07;6.20;99.90
6788;DHT22;3431;47.966;10.268;2023-04-25T01:34:29;6.20;99.90
6788;DHT22;3431;47.966;10.268;2023-04-25T01:34:53;6.20;99.90
6788;DHT22;3431;47.966;10.268;2023-04-25T01:35:14;6.10;99.90
6788;DHT22;3431;47.966;10.268;2023-04-25T01:35:36;6.10;99.90
6788;DHT22;3431;47.966;10.268;2023-04-25T01:35:59;6.10;99.90
6788;DHT22;3431;47.966;10.268;2023-04-25T01:36:22;6.10;99.90
6788;DHT22;3431;47.966;10.268;2023-04-25T01:36:44;6.10;99.90
6788;DHT22;3431;47.966;10.268;2023-04-25T01:37:05;6.10;99.90
6788;DHT22;3431;47.966;10.268;2023-04-25T01:37:28;6.10;99.90
6788;DHT22;3431;47.966;10.268;2023-04-25T01:37:50;6.10;99.90
6788;DHT22;3431;47.966;10.268;2023-04-25T01:38:12;6.00;99.90
6788;DHT22;3431;47.966;10.268;2023-04-25T01:38:35;6.00;99.90
6788;DHT22;3431;47.966;10.268;2023-04-25T01:38:56;6.00;99.90
6788;DHT22;3431;47.966;10.268;2023-04-25T01:39:20;6.00;99.90
6788;DHT22;3431;47.966;10.268;2023-04-25T01:39:42;6.00;99.90
6788;DHT22;3431;47.966;10.268;2023-04-25T01:40:04;6.00;99.90
6788;DHT22;3431;47.966;10.268;2023-04-25T01:40:27;6.00;99.90
6788;DHT22;3431;47.966;10.268;2023-04-25T01:40:52;6.00;99.90
6788;DHT22;3431;47.966;10.268;2023-04-25T01:41:15;6.00;99.90
6788;DHT22;3431;47.966;10.268;2023-04-25T01:41:38;6.00;99.90
6788;DHT22;3431;47.966;10.268;2023-04-25T01:42:00;6.10;99.90
6788;DHT22;3431;47.966;10.268;2023-04-25T01:42:22;6.10;99.90
6788;DHT22;3431;47.966;10.268;2023-04-25T01:42:45;6.10;99.90
6788;DHT22;3431;47.966;10.268;2023-04-25T01:43:07;6.10;99.90
6788;DHT22;3431;47.966;10.268;2023-04-25T01:43:32;6.10;99.90
6788;DHT22;3431;47.966;10.268;2023-04-25T01:43:54;6.10;99.90
6788;DHT22;3431;47.966;10.268;2023-04-25T01:44:16;6.10;99.90
6788;DHT22;3431;47.966;10.268;2023-04-25T01:44:38;6.00;99.90
6788;DHT22;3431;47.966;10.268;2023-04-25T01:45:00;6.10;99.90
6788;DHT22;3431;47.966;10.268;2023-04-25T01:45:24;6.00;99.90
6788;DHT22;3431;47.966;10.268;2023-04-25T01:45:46;6.00;99.90
6788;DHT22;3431;47.966;10.268;2023-04-25T01:46:09;6.00;99.90
6788;DHT22;3431;47.966;10.268;2023-04-25T01:46:33;6.00;99.90
6788;DHT22;3431;47.966;10.268;2023-04-25T01:46:56;6.00;99.90
6788;DHT22;3431;47.966;10.268;2023-04-25T01:47:18;6.00;99.90
6788;DHT22;3431;47.966;10.268;2023-04-25T01:47:40;6.00;99.90
6788;DHT22;3431;47.966;10.268;2023-04-25T01:48:04;5.90;99.90
6788;DHT22;3431;47.966;10.268;2023-04-25T01:48:25;6.00;99.90
6788;DHT22;3431;47.966;10.268;2023-04-25T01:48:48;5.90;99.90
6788;DHT22;3431;47.966;10.268;2023-04-25T01:49:10;5.90;99.90
6788;DHT22;3431;47.966;10.268;2023-04-25T01:49:31;5.90;99.90
6788;DHT22;3431;47.966;10.268;2023-04-25T01:49:54;5.90;99.90
6788;DHT22;3431;47.966;10.268;2023-04-25T01:50:18;5.90;99.90
6788;DHT22;3431;47.966;10.268;2023-04-25T01:50:40;5.80;99.90
6788;DHT22;3431;47.966;10.268;2023-04-25T01:51:03;5.80;99.90
6788;DHT22;3431;47.966;10.268;2023-04-25T01:51:26;5.80;99.90
6788;DHT22;3431;47.966;10.268;2023-04-25T01:51:49;5.80;99.90
6788;DHT22;3431;47.966;10.268;2023-04-25T01:52:11;5.80;99.90
6788;DHT22;3431;47.966;10.268;2023-04-25T01:52:32;5.80;99.90
6788;DHT22;3431;47.966;10.268;2023-04-25T01:52:54;5.80;99.90
6788;DHT22;3431;47.966;10.268;2023-04-25T01:53:16;5.80;99.90
6788;DHT22;3431;47.966;10.268;2023-04-25T01:53:40;5.80;99.90
6788;DHT22;3431;47.966;10.268;2023-04-25T01:54:02;5.80;99.90
6788;DHT22;3431;47.966;10.268;2023-04-25T01:54:24;5.80;99.90
6788;DHT22;3431;47.966;10.268;2023-04-25T01:54:46;5.80;99.90
6788;DHT22;3431;47.966;10.268;2023-04-25T01:55:09;5.80;99.90
6788;DHT22;3431;47.966;10.268;2023-04-25T01:55:35;5.70;99.90
6788;DHT22;3431;47.966;10.268;2023-04-25T01:56:05;5.80;99.90
6788;DHT22;3431;47.966;10.268;2023-04-25T01:56:32;5.70;99.90
6788;DHT22;3431;47.966;10.268;2023-04-25T01:56:57;5.70;99.90
6788;DHT22;3431;47.966;10.268;2023-04-25T01:57:19;5.70;99.90
6788;DHT22;3431;47.966;10.268;2023-04-25T01:57:41;5.70;99.90
6788;DHT22;3431;47.966;10.268;2023-04-25T01:58:04;5.60;99.90
6788;DHT22;3431;47.966;10.268;2023-04-25T01:59:03;5.70;99.90
6788;DHT22;3431;47.966;10.268;2023-04-25T01:59:44;5.60;99.90
6788;DHT22;3431;47.966;10.268;2023-04-25T02:00:31;5.60;99.90
6788;DHT22;3431;47.966;10.268;2023-04-25T02:00:53;5.60;99.90
6788;DHT22;3431;47.966;10.268;2023-04-25T02:01:15;5.70;99.90
6788;DHT22;3431;47.966;10.268;2023-04-25T02:01:43;5.60;99.90
6788;DHT22;3431;47.966;10.268;2023-04-25T02:02:16;5.60;99.90
6788;DHT22;3431;47.966;10.268;2023-04-25T02:02:37;5.60;99.90
6788;DHT22;3431;47.966;10.268;2023-04-25T02:03:03;5.60;99.90
6788;DHT22;3431;47.966;10.268;2023-04-25T02:03:27;5.60;99.90
6788;DHT22;3431;47.966;10.268;2023-04-25T02:03:50;5.60;99.90
6788;DHT22;3431;47.966;10.268;2023-04-25T02:04:18;5.60;99.90
6788;DHT22;3431;47.966;10.268;2023-04-25T02:04:41;5.60;99.90
6788;DHT22;3431;47.966;10.268;2023-04-25T02:05:04;5.60;99.90
6788;DHT22;3431;47.966;10.268;2023-04-25T02:05:28;5.60;99.90
6788;DHT22;3431;47.966;10.268;2023-04-25T02:05:50;5.60;99.90
6788;DHT22;3431;47.966;10.268;2023-04-25T02:06:13;5.60;99.90
6788;DHT22;3431;47.966;10.268;2023-04-25T02:06:39;5.60;99.90
6788;DHT22;3431;47.966;10.268;2023-04-25T02:07:02;5.60;99.90
6788;DHT22;3431;47.966;10.268;2023-04-25T02:07:33;5.60;99.90
6788;DHT22;3431;47.966;10.268;2023-04-25T02:07:56;5.60;99.90
6788;DHT22;3431;47.966;10.268;2023-04-25T02:08:20;5.60;99.90
6788;DHT22;3431;47.966;10.268;2023-04-25T02:08:42;5.60;99.90
6788;DHT22;3431;47.966;10.268;2023-04-25T02:09:03;5.70;99.90
6788;DHT22;3431;47.966;10.268;2023-04-25T02:09:26;5.60;99.90
6788;DHT22;3431;47.966;10.268;2023-04-25T02:09:50;5.60;99.90
6788;DHT22;3431;47.966;10.268;2023-04-25T02:10:14;5.60;99.90
6788;DHT22;3431;47.966;10.268;2023-04-25T02:10:47;5.60;99.90
6788;DHT22;3431;47.966;10.268;2023-04-25T02:11:13;5.60;99.90
6788;DHT22;3431;47.966;10.268;2023-04-25T02:11:40;5.60;99.90
6788;DHT22;3431;47.966;10.268;2023-04-25T02:12:22;5.60;99.90
6788;DHT22;3431;47.966;10.268;2023-04-25T02:12:57;5.60;99.90
6788;DHT22;3431;47.966;10.268;2023-04-25T02:13:32;5.60;99.90
6788;DHT22;3431;47.966;10.268;2023-04-25T02:14:12;5.60;99.90
6788;DHT22;3431;47.966;10.268;2023-04-25T02:14:39;5.50;99.90
6788;DHT22;3431;47.966;10.268;2023-04-25T02:15:12;5.50;99.90
6788;DHT22;3431;47.966;10.268;2023-04-25T02:15:43;5.50;99.90
6788;DHT22;3431;47.966;10.268;2023-04-25T02:16:14;5.50;99.90
6788;DHT22;3431;47.966;10.268;2023-04-25T02:16:37;5.50;99.90
6788;DHT22;3431;47.966;10.268;2023-04-25T02:17:02;5.40;99.90
6788;DHT22;3431;47.966;10.268;2023-04-25T02:17:25;5.50;99.90
6788;DHT22;3431;47.966;10.268;2023-04-25T02:17:47;5.50;99.90
6788;DHT22;3431;47.966;10.268;2023-04-25T02:18:10;5.40;99.90
6788;DHT22;3431;47.966;10.268;2023-04-25T02:18:32;5.50;99.90
6788;DHT22;3431;47.966;10.268;2023-04-25T02:18:54;5.50;99.90
6788;DHT22;3431;47.966;10.268;2023-04-25T02:19:15;5.40;99.90
6788;DHT22;3431;47.966;10.268;2023-04-25T02:19:37;5.40;99.90
6788;DHT22;3431;47.966;10.268;2023-04-25T02:20:02;5.50;99.90
6788;DHT22;3431;47.966;10.268;2023-04-25T02:20:25;5.40;99.90
6788;DHT22;3431;47.966;10.268;2023-04-25T02:20:47;5.40;99.90
6788;DHT22;3431;47.966;10.268;2023-04-25T02:21:09;5.40;99.90
6788;DHT22;3431;47.966;10.268;2023-04-25T02:21:31;5.40;99.90
6788;DHT22;3431;47.966;10.268;2023-04-25T02:21:54;5.40;99.90
6788;DHT22;3431;47.966;10.268;2023-04-25T02:22:18;5.40;99.90
6788;DHT22;3431;47.966;10.268;2023-04-25T02:22:40;5.40;99.90
6788;DHT22;3431;47.966;10.268;2023-04-25T02:23:03;5.40;99.90
6788;DHT22;3431;47.966;10.268;2023-04-25T02:23:25;5.40;99.90
6788;DHT22;3431;47.966;10.268;2023-04-25T02:23:47;5.50;99.90
6788;DHT22;3431;47.966;10.268;2023-04-25T02:24:10;5.40;99.90
6788;DHT22;3431;47.966;10.268;2023-04-25T02:24:32;5.50;99.90
6788;DHT22;3431;47.966;10.268;2023-04-25T02:24:55;5.50;99.90
6788;DHT22;3431;47.966;10.268;2023-04-25T02:25:17;5.40;99.90
6788;DHT22;3431;47.966;10.268;2023-04-25T02:25:39;5.50;99.90
6788;DHT22;3431;47.966;10.268;2023-04-25T02:26:01;5.50;99.90
6788;DHT22;3431;47.966;10.268;2023-04-25T02:26:23;5.50;99.90
6788;DHT22;3431;47.966;10.268;2023-04-25T02:26:46;5.50;99.90
6788;DHT22;3431;47.966;10.268;2023-04-25T02:27:08;5.50;99.90
6788;DHT22;3431;47.966;10.268;2023-04-25T02:27:31;5.50;99.90
6788;DHT22;3431;47.966;10.268;2023-04-25T02:27:52;5.50;99.90
6788;DHT22;3431;47.966;10.268;2023-04-25T02:28:15;5.50;99.90
6788;DHT22;3431;47.966;10.268;2023-04-25T02:28:37;5.50;99.90
6788;DHT22;3431;47.966;10.268;2023-04-25T02:28:59;5.50;99.90
6788;DHT22;3431;47.966;10.268;2023-04-25T02:29:22;5.50;99.90
6788;DHT22;3431;47.966;10.268;2023-04-25T02:29:44;5.50;99.90
6788;DHT22;3431;47.966;10.268;2023-04-25T02:30:07;5.50;99.90
6788;DHT22;3431;47.966;10.268;2023-04-25T02:30:29;5.50;99.90
6788;DHT22;3431;47.966;10.268;2023-04-25T02:30:51;5.60;99.90